Time;durP1;ratioP1;P1;durP2;ratioP2;P2;SDS_P1;SDS_P2;PMS_P1;PMS_P2;Temp;Humidity;BMP_temperature;BMP_pressure;BME280_temperature;BME280_humidity;BME280_pressure;Samples;Min_cycle;Max_cycle;Signal;HPM_P1;HPM_P2
2022/05/14 00:01:00;;;;;;;3.80;1.92;;;;;;;8.76;81.89;97863.59;5004630;28;20057;-60
2022/05/14 00:03:29;;;;;;;6.18;1.65;;;;;;;8.66;81.58;97864.16;5004011;28;20045;-60
2022/05/14 00:06:00;;;;;;;5.72;1.70;;;;;;;8.68;81.69;97862.88;4998811;28;20088;-60
2022/05/14 00:08:27;;;;;;;3.40;1.67;;;;;;;8.68;81.26;97865.59;5004898;28;20034;-61
2022/05/14 00:13:39;;;;;;;8.85;1.83;;;;;;;8.39;82.40;97864.44;5005807;28;20061;-61
2022/05/14 00:16:07;;;;;;;6.55;2.08;;;;;;;8.17;83.44;97863.03;5011770;28;20050;-61
2022/05/14 00:18:34;;;;;;;5.65;2.13;;;;;;;8.10;84.42;97864.97;5017044;28;20057;-60
2022/05/14 00:21:01;;;;;;;3.97;1.80;;;;;;;8.35;83.20;97869.47;5003526;28;20042;-61
2022/05/14 00:23:28;;;;;;;5.65;2.28;;;;;;;8.44;82.49;97865.41;5012672;28;20038;-61
2022/05/14 00:25:55;;;;;;;5.65;2.03;;;;;;;8.52;82.56;97856.19;4989621;28;20100;-61
2022/05/14 00:28:22;;;;;;;4.15;1.85;;;;;;;8.24;84.16;97857.56;4989066;28;20042;-60
2022/05/14 00:30:49;;;;;;;5.40;2.13;;;;;;;8.11;84.36;97849.63;4995625;28;20043;-61
2022/05/14 00:33:16;;;;;;;5.13;1.77;;;;;;;8.12;85.45;97857.50;5004905;28;20046;-61
2022/05/14 00:35:43;;;;;;;4.15;1.73;;;;;;;8.41;84.46;97851.56;5003658;28;20044;-60
2022/05/14 00:38:10;;;;;;;6.97;2.08;;;;;;;8.67;82.22;97855.00;5005533;28;20046;-61
2022/05/14 00:40:47;;;;;;;8.75;1.80;;;;;;;8.50;81.87;97852.06;5002860;28;20073;-60
2022/05/14 00:43:15;;;;;;;5.78;1.83;;;;;;;8.46;81.80;97849.84;5003509;28;20107;-61
2022/05/14 00:45:53;;;;;;;7.90;3.30;;;;;;;8.23;83.43;97858.63;4999541;28;20092;-61
2022/05/14 00:48:20;;;;;;;4.22;2.00;;;;;;;8.12;84.52;97844.00;5002319;28;20137;-61
2022/05/14 00:50:54;;;;;;;2.63;1.60;;;;;;;8.36;83.11;97851.41;4993950;28;20046;-61
2022/05/14 00:53:30;;;;;;;5.18;1.90;;;;;;;8.69;81.63;97847.50;5003403;28;20580;-60
2022/05/14 00:56:00;;;;;;;3.72;1.63;;;;;;;8.61;80.67;97848.63;5004524;28;20058;-60
2022/05/14 00:58:51;;;;;;;3.50;1.92;;;;;;;8.45;81.78;97848.16;5020157;28;20061;-61
2022/05/14 01:01:18;;;;;;;5.10;1.83;;;;;;;8.41;81.95;97852.38;5005307;28;20034;-61
2022/05/14 01:03:45;;;;;;;4.13;1.70;;;;;;;8.51;81.59;97848.34;5006419;28;20454;-60
2022/05/14 01:06:16;;;;;;;3.72;1.67;;;;;;;8.50;81.41;97844.81;5008190;28;20053;-60
2022/05/14 01:08:57;;;;;;;6.38;2.97;;;;;;;8.51;83.11;97840.25;5001966;28;20081;-60
2022/05/14 01:11:28;;;;;;;7.25;2.05;;;;;;;8.31;82.56;97846.69;5009110;28;20037;-60
2022/05/14 01:13:54;;;;;;;6.75;2.55;;;;;;;8.41;81.97;97838.88;5007358;28;20604;-60
2022/05/14 01:16:21;;;;;;;4.72;1.98;;;;;;;8.41;82.09;97843.47;5004021;28;20042;-60
2022/05/14 01:18:49;;;;;;;7.25;1.90;;;;;;;8.37;82.20;97842.28;4988734;28;20101;-62
2022/05/14 01:21:34;;;;;;;4.45;2.08;;;;;;;8.31;82.59;97839.44;5006375;28;20049;-60
2022/05/14 01:26:55;;;;;;;8.27;2.13;;;;;;;8.03;83.91;97843.47;5024563;28;20099;-60
2022/05/14 01:29:24;;;;;;;6.28;1.90;;;;;;;7.98;84.26;97839.78;5016728;28;20042;-61
2022/05/14 01:31:56;;;;;;;4.05;1.80;;;;;;;8.00;84.23;97845.78;5021368;28;20585;-61
2022/05/14 01:34:31;;;;;;;4.70;2.10;;;;;;;7.96;84.46;97844.59;5005993;28;20069;-60
2022/05/14 01:36:59;;;;;;;5.18;1.88;;;;;;;8.05;83.84;97841.38;5005301;28;20130;-61
2022/05/14 01:39:26;;;;;;;6.80;2.00;;;;;;;8.09;83.80;97846.31;5007413;28;20042;-60
2022/05/14 01:41:53;;;;;;;4.55;2.17;;;;;;;8.10;83.72;97843.38;5007696;28;20046;-61
2022/05/14 01:44:21;;;;;;;3.40;1.98;;;;;;;8.20;84.01;97849.09;5005886;28;20053;-60
2022/05/14 01:46:49;;;;;;;4.40;2.28;;;;;;;8.21;82.62;97839.13;5005160;28;20121;-61
2022/05/14 01:49:16;;;;;;;3.17;1.83;;;;;;;8.13;82.94;97842.94;5006135;28;20050;-61
2022/05/14 01:51:42;;;;;;;4.65;1.98;;;;;;;8.16;82.94;97839.81;5003932;28;20046;-61
2022/05/14 01:54:10;;;;;;;6.05;2.03;;;;;;;8.09;83.77;97838.22;4988977;28;20069;-60
2022/05/14 01:56:37;;;;;;;3.88;1.88;;;;;;;7.87;84.03;97844.88;4993544;28;20043;-61
2022/05/14 01:59:05;;;;;;;4.38;2.10;;;;;;;7.57;85.44;97842.88;5010549;28;20591;-60
2022/05/14 02:01:34;;;;;;;5.50;2.20;;;;;;;7.33;86.38;97834.56;5008158;28;20096;-61
2022/05/14 02:04:06;;;;;;;3.97;2.17;;;;;;;7.28;86.89;97837.09;5004318;28;20049;-61
2022/05/14 02:06:34;;;;;;;6.55;2.25;;;;;;;7.32;86.83;97832.06;4985701;28;20293;-60
2022/05/14 02:09:04;;;;;;;3.83;2.08;;;;;;;7.36;86.22;97838.69;4989747;28;20426;-61
2022/05/14 02:11:31;;;;;;;4.72;1.88;;;;;;;7.34;86.43;97838.91;4985545;28;20047;-60
2022/05/14 02:14:08;;;;;;;5.45;1.85;;;;;;;7.46;85.86;97832.81;4989627;28;20517;-60
2022/05/14 02:16:35;;;;;;;8.15;2.22;;;;;;;7.51;85.84;97841.88;5003613;28;20057;-60
2022/05/14 02:19:04;;;;;;;6.15;2.95;;;;;;;7.55;85.49;97836.88;5005930;28;20420;-60
2022/05/14 02:21:32;;;;;;;5.30;2.08;;;;;;;7.63;85.17;97843.88;5004721;28;20440;-60
2022/05/14 02:23:59;;;;;;;4.97;2.10;;;;;;;7.64;84.75;97832.88;5018983;28;20083;-60
2022/05/14 02:26:27;;;;;;;4.00;1.90;;;;;;;7.56;85.45;97846.63;5006011;28;20369;-60
2022/05/14 02:28:55;;;;;;;6.93;2.42;;;;;;;7.80;84.18;97838.72;5004057;28;20049;-61
2022/05/14 02:31:21;;;;;;;4.13;2.00;;;;;;;7.63;84.82;97841.16;5004834;28;20132;-61
2022/05/14 02:33:48;;;;;;;4.68;2.33;;;;;;;7.50;85.16;97844.78;5015057;28;20485;-61
2022/05/14 02:36:16;;;;;;;4.28;1.98;;;;;;;7.58;85.46;97844.50;5006135;28;20042;-61
2022/05/14 02:38:44;;;;;;;4.68;2.00;;;;;;;7.64;84.30;97851.72;5004971;28;20324;-61
2022/05/14 02:41:12;;;;;;;7.38;2.78;;;;;;;7.82;84.57;97842.03;5004165;28;20046;-61
2022/05/14 02:43:39;;;;;;;5.55;2.30;;;;;;;7.86;82.87;97840.53;5003770;28;20133;-60
2022/05/14 02:46:06;;;;;;;4.85;2.20;;;;;;;7.68;83.75;97839.44;5004430;28;20042;-61
2022/05/14 02:48:34;;;;;;;4.32;1.95;;;;;;;7.55;84.10;97840.41;5004785;28;20060;-61
2022/05/14 02:51:02;;;;;;;7.80;1.90;;;;;;;7.56;84.31;97841.22;5003758;28;20049;-61
2022/05/14 02:53:29;;;;;;;3.72;2.30;;;;;;;7.49;85.81;97843.94;4989501;28;20092;-61
2022/05/14 02:55:56;;;;;;;5.45;2.20;;;;;;;7.52;85.41;97837.31;4999563;28;20398;-61
2022/05/14 03:01:08;;;;;;;4.20;2.30;;;;;;;7.53;83.85;97842.47;5009790;28;20053;-61
2022/05/14 03:03:35;;;;;;;3.03;1.77;;;;;;;7.23;86.40;97848.50;5006309;28;20125;-61
2022/05/14 03:06:02;;;;;;;7.30;2.22;;;;;;;7.31;85.24;97841.22;4986296;28;20406;-61
2022/05/14 03:08:29;;;;;;;4.28;1.98;;;;;;;7.23;85.98;97839.63;5001980;28;20046;-60
2022/05/14 03:10:56;;;;;;;5.18;1.88;;;;;;;7.30;85.40;97837.72;4985399;28;20046;-61
2022/05/14 03:13:23;;;;;;;6.45;1.90;;;;;;;7.27;85.62;97838.13;4999434;28;20073;-61
2022/05/14 03:15:50;;;;;;;4.43;2.17;;;;;;;7.29;85.49;97833.34;5005583;28;20045;-61
2022/05/14 03:18:17;;;;;;;4.45;1.88;;;;;;;7.23;85.65;97835.03;4992859;28;20587;-60
2022/05/14 03:20:44;;;;;;;5.90;2.08;;;;;;;7.18;86.06;97837.56;4999066;28;20049;-60
2022/05/14 03:23:11;;;;;;;7.18;2.65;;;;;;;7.19;85.95;97833.81;5016617;28;20065;-60
2022/05/14 03:25:38;;;;;;;4.80;1.95;;;;;;;7.19;85.71;97838.41;5006119;28;20125;-60
2022/05/14 03:28:05;;;;;;;4.90;2.05;;;;;;;7.18;86.26;97839.47;5004371;28;20038;-60
2022/05/14 03:30:32;;;;;;;4.38;2.08;;;;;;;7.20;86.21;97834.66;5005830;28;20054;-60
2022/05/14 03:32:59;;;;;;;7.85;2.25;;;;;;;7.14;86.40;97829.13;5003085;28;20148;-60
2022/05/14 03:35:25;;;;;;;5.75;2.28;;;;;;;7.22;86.16;97835.28;4989499;28;20034;-61
2022/05/14 03:37:52;;;;;;;3.38;1.90;;;;;;;7.08;86.74;97835.34;4998918;28;20050;-61
2022/05/14 03:40:18;;;;;;;7.43;2.10;;;;;;;6.99;87.32;97834.81;5010581;28;20066;-60
2022/05/14 03:42:45;;;;;;;4.15;2.00;;;;;;;7.02;87.12;97833.53;5011672;28;20583;-59
2022/05/14 03:45:12;;;;;;;9.45;2.50;;;;;;;6.97;87.52;97844.16;5002709;28;20045;-61
2022/05/14 03:47:40;;;;;;;3.63;2.00;;;;;;;7.07;87.00;97844.47;5009021;28;20045;-60
2022/05/14 03:50:07;;;;;;;8.32;2.20;;;;;;;7.11;86.90;97843.00;5022120;28;20048;-60
2022/05/14 03:52:34;;;;;;;4.03;1.95;;;;;;;7.16;86.55;97842.38;5013933;28;20056;-60
2022/05/14 03:55:00;;;;;;;5.45;1.98;;;;;;;7.22;86.33;97851.44;5006256;28;20513;-60
2022/05/14 03:57:27;;;;;;;5.00;2.05;;;;;;;7.25;86.12;97848.28;5001013;28;20124;-61
2022/05/14 03:59:54;;;;;;;5.13;2.47;;;;;;;7.23;86.32;97840.44;4988288;28;20038;-60
2022/05/14 04:02:21;;;;;;;4.38;1.88;;;;;;;7.21;86.08;97841.69;5003123;28;20069;-61
2022/05/14 04:04:48;;;;;;;7.10;2.20;;;;;;;7.19;86.38;97841.91;5010583;28;20041;-61
2022/05/14 04:07:18;;;;;;;5.28;2.30;;;;;;;7.20;86.55;97840.06;5003288;28;20069;-60
2022/05/14 04:09:45;;;;;;;5.65;2.25;;;;;;;7.25;86.70;97829.44;4992895;28;20425;-61
2022/05/14 04:12:12;;;;;;;3.53;1.92;;;;;;;7.35;86.15;97837.03;4991403;28;20042;-60
2022/05/14 04:14:38;;;;;;;7.07;2.78;;;;;;;7.41;85.98;97834.28;4992061;28;20647;-61
2022/05/14 04:17:05;;;;;;;4.47;2.13;;;;;;;7.41;85.63;97836.97;4991856;28;20038;-60
2022/05/14 04:19:32;;;;;;;5.47;2.30;;;;;;;7.35;86.02;97837.88;5020521;28;20123;-64
2022/05/14 04:21:59;;;;;;;6.60;2.30;;;;;;;7.34;86.50;97838.91;5001143;28;20057;-61
2022/05/14 04:24:27;;;;;;;3.25;1.88;;;;;;;7.35;86.40;97840.56;5009106;28;20053;-60
2022/05/14 04:26:54;;;;;;;5.57;2.25;;;;;;;7.32;86.40;97843.69;5003112;28;20037;-61
2022/05/14 04:29:21;;;;;;;6.35;2.45;;;;;;;7.41;86.08;97841.56;5003548;28;20045;-61
2022/05/14 04:31:49;;;;;;;4.03;2.30;;;;;;;7.55;85.84;97836.88;5013896;28;20049;-60
2022/05/14 04:34:18;;;;;;;4.85;2.10;;;;;;;7.52;86.20;97835.44;5006595;28;20046;-60
2022/05/14 04:36:45;;;;;;;6.63;2.30;;;;;;;7.59;85.95;97843.47;5003368;28;20054;-60
2022/05/14 04:39:11;;;;;;;3.75;1.80;;;;;;;7.71;86.08;97831.97;5006972;28;20576;-60
2022/05/14 04:41:38;;;;;;;5.50;2.88;;;;;;;7.85;85.44;97836.16;5023487;28;20053;-61
2022/05/14 04:44:11;;;;;;;4.60;2.08;;;;;;;8.00;85.04;97840.41;4997331;28;20042;-61
2022/05/14 04:46:38;;;;;;;6.95;2.38;;;;;;;8.10;84.55;97835.28;5005303;28;20053;-61
2022/05/14 04:49:04;;;;;;;5.20;2.17;;;;;;;8.13;84.72;97844.81;5007786;28;20050;-61
2022/05/14 04:51:32;;;;;;;4.95;2.75;;;;;;;8.16;84.42;97847.06;5016718;28;20052;-61
2022/05/14 04:53:59;;;;;;;3.70;2.03;;;;;;;8.22;84.11;97846.16;5012132;28;20212;-61
2022/05/14 04:56:26;;;;;;;6.00;2.38;;;;;;;8.28;83.91;97847.13;5017395;28;20153;-61
2022/05/14 04:58:52;;;;;;;6.43;2.42;;;;;;;8.32;83.47;97851.88;5015794;28;20096;-61
2022/05/14 05:01:19;;;;;;;5.25;2.33;;;;;;;8.37;83.39;97853.06;5009436;28;20077;-62
2022/05/14 05:03:46;;;;;;;6.68;2.03;;;;;;;8.45;83.07;97853.56;5009931;28;20063;-61
2022/05/14 05:06:14;;;;;;;4.38;2.05;;;;;;;8.54;83.23;97853.28;5003821;28;20092;-61
2022/05/14 05:08:42;;;;;;;4.93;2.20;;;;;;;8.62;83.08;97855.69;5005913;28;20085;-62
2022/05/14 05:11:10;;;;;;;5.22;1.90;;;;;;;8.76;83.17;97858.19;5003116;28;20056;-60
2022/05/14 05:13:37;;;;;;;4.65;2.55;;;;;;;8.91;82.63;97855.94;4999936;28;20042;-61
2022/05/14 05:16:04;;;;;;;6.43;3.20;;;;;;;9.00;81.74;97869.13;5006916;28;20034;-61
2022/05/14 05:18:32;;;;;;;7.38;1.90;;;;;;;9.14;81.56;97857.06;4993465;28;20053;-61
2022/05/14 05:20:59;;;;;;;4.78;2.15;;;;;;;9.24;80.95;97856.50;4989674;28;20449;-61
2022/05/14 05:23:27;;;;;;;4.53;1.60;;;;;;;9.43;80.53;97859.94;5005733;28;20042;-61
2022/05/14 05:25:55;;;;;;;7.22;2.63;;;;;;;9.61;79.80;97867.16;5004802;28;20516;-61
2022/05/14 05:28:22;;;;;;;6.25;2.20;;;;;;;9.78;78.81;97860.22;5007873;28;20156;-61
2022/05/14 05:30:50;;;;;;;6.80;1.77;;;;;;;9.95;78.06;97861.16;5011789;28;20137;-61
2022/05/14 05:33:23;;;;;;;4.72;2.03;;;;;;;10.11;77.93;97861.50;5008572;28;20050;-60
2022/05/14 05:35:50;;;;;;;2.88;1.60;;;;;;;10.25;76.83;97857.47;5006874;28;20046;-62
2022/05/14 05:38:18;;;;;;;4.25;1.75;;;;;;;10.44;76.47;97853.81;5010325;28;20041;-61
2022/05/14 05:40:44;;;;;;;5.30;1.80;;;;;;;10.60;76.25;97857.66;5015444;28;20049;-60
2022/05/14 05:43:12;;;;;;;4.28;1.45;;;;;;;10.78;75.91;97856.66;5014224;28;20049;-61
2022/05/14 05:45:43;;;;;;;4.63;1.77;;;;;;;10.92;76.08;97857.22;5014853;28;20113;-61
2022/05/14 05:48:10;;;;;;;8.25;1.95;;;;;;;11.08;75.31;97854.75;5016637;28;20065;-62
2022/05/14 05:50:38;;;;;;;4.05;1.60;;;;;;;11.13;75.44;97858.41;5011922;28;20052;-61
2022/05/14 05:53:06;;;;;;;3.63;1.50;;;;;;;11.24;74.67;97864.81;5008796;28;20049;-62
2022/05/14 05:58:19;;;;;;;3.70;1.50;;;;;;;11.61;73.74;97860.81;5006514;28;20045;-62
2022/05/14 06:00:47;;;;;;;3.58;1.40;;;;;;;11.80;72.59;97866.00;5000504;28;20042;-61
2022/05/14 06:03:14;;;;;;;4.10;1.30;;;;;;;11.95;71.47;97854.56;5005464;28;20054;-61
2022/05/14 06:05:41;;;;;;;4.25;1.20;;;;;;;12.08;71.17;97865.09;5004411;28;20045;-61
2022/05/14 06:08:13;;;;;;;2.63;1.23;;;;;;;12.20;70.55;97866.91;4994234;28;20060;-61
2022/05/14 06:10:41;;;;;;;3.60;1.50;;;;;;;12.38;69.97;97856.81;5012040;28;20049;-61
2022/05/14 06:13:11;;;;;;;3.20;1.35;;;;;;;12.51;69.65;97863.75;5003023;28;20056;-61
2022/05/14 06:15:39;;;;;;;3.85;1.10;;;;;;;12.60;69.78;97857.63;5008539;28;20080;-61
2022/05/14 06:18:07;;;;;;;1.65;1.00;;;;;;;12.74;68.96;97865.38;5009495;28;20050;-62
2022/05/14 06:20:37;;;;;;;2.85;0.80;;;;;;;12.89;68.26;97864.72;4997262;28;20045;-61
2022/05/14 06:23:03;;;;;;;3.53;1.60;;;;;;;13.01;66.89;97864.56;4995552;28;20045;-62
2022/05/14 06:25:30;;;;;;;5.95;1.17;;;;;;;13.16;66.54;97860.38;5015408;28;20171;-62
2022/05/14 06:27:56;;;;;;;1.40;0.90;;;;;;;13.30;66.45;97864.31;4992704;28;20046;-62
2022/05/14 06:30:23;;;;;;;3.92;1.00;;;;;;;13.39;66.17;97864.69;5006908;28;20046;-62
2022/05/14 06:32:49;;;;;;;2.00;1.08;;;;;;;13.52;66.61;97863.47;5003279;28;20049;-62
2022/05/14 06:35:16;;;;;;;2.72;0.93;;;;;;;13.70;66.33;97867.69;4988420;28;20048;-62
2022/05/14 06:37:45;;;;;;;2.00;1.00;;;;;;;13.84;65.78;97857.19;5000823;28;20042;-62
2022/05/14 06:40:12;;;;;;;2.20;0.93;;;;;;;13.99;64.95;97861.09;5006916;28;20554;-62
2022/05/14 06:42:38;;;;;;;2.65;1.02;;;;;;;14.11;64.23;97867.16;4996358;28;20057;-62
2022/05/14 06:45:07;;;;;;;3.33;0.90;;;;;;;14.25;64.56;97856.63;5011065;28;20052;-62
2022/05/14 06:47:34;;;;;;;2.63;1.00;;;;;;;14.36;63.06;97860.22;5014374;28;20050;-62
2022/05/14 06:50:00;;;;;;;1.52;0.80;;;;;;;14.51;62.85;97864.91;4991621;28;20054;-62
2022/05/14 06:52:27;;;;;;;3.50;0.73;;;;;;;14.60;62.17;97862.50;4996049;28;20567;-61
2022/05/14 06:54:55;;;;;;;5.55;1.02;;;;;;;14.77;61.21;97859.59;4986978;28;20042;-61
2022/05/14 06:57:22;;;;;;;3.17;0.80;;;;;;;14.85;61.96;97862.91;4998515;28;20517;-60
2022/05/14 06:59:49;;;;;;;3.03;0.98;;;;;;;15.12;58.07;97865.44;5016676;28;20128;-61
2022/05/14 07:02:17;;;;;;;4.63;0.85;;;;;;;15.16;57.66;97869.25;5006414;28;20527;-61
2022/05/14 07:07:31;;;;;;;2.40;0.70;;;;;;;15.56;59.91;97879.66;5011220;28;20521;-50
2022/05/14 07:09:59;;;;;;;4.32;0.77;;;;;;;15.72;56.26;97877.75;5011909;28;20034;-53
2022/05/14 07:12:26;;;;;;;3.83;0.70;;;;;;;15.81;52.21;97883.50;5009805;28;20052;-52
2022/05/14 07:14:53;;;;;;;3.83;0.57;;;;;;;15.82;50.79;97882.38;5016584;28;20045;-53
2022/05/14 07:17:20;;;;;;;3.65;0.70;;;;;;;15.91;52.59;97879.91;5005948;28;20041;-52
2022/05/14 07:19:47;;;;;;;3.22;0.60;;;;;;;16.02;50.84;97873.38;4999167;28;20045;-51
2022/05/14 07:22:14;;;;;;;3.55;0.80;;;;;;;16.12;51.52;97878.03;5015746;28;20045;-52
2022/05/14 07:24:41;;;;;;;3.38;0.60;;;;;;;16.11;49.23;97871.72;5017717;28;20045;-52
2022/05/14 07:27:11;;;;;;;3.42;0.70;;;;;;;16.12;50.56;97872.56;5002312;28;20045;-54
2022/05/14 07:29:40;;;;;;;3.97;0.90;;;;;;;16.19;52.97;97883.19;5019925;28;20079;-53
2022/05/14 07:32:09;;;;;;;2.60;0.95;;;;;;;16.35;52.16;97876.59;5001021;28;20049;-54
2022/05/14 07:34:35;;;;;;;3.08;0.60;;;;;;;16.45;50.60;97874.94;5004060;28;20041;-55
2022/05/14 07:37:06;;;;;;;1.83;0.80;;;;;;;16.41;48.41;97876.56;4991351;28;20037;-50
2022/05/14 07:39:43;;;;;;;3.17;0.70;;;;;;;16.45;50.59;97880.41;5003579;28;20069;-54
2022/05/14 07:42:14;;;;;;;1.60;0.70;;;;;;;16.48;47.79;97880.66;4998124;28;20050;-55
2022/05/14 07:44:45;;;;;;;3.40;0.75;;;;;;;16.34;47.78;97874.97;5002718;28;20077;-50
2022/05/14 07:47:13;;;;;;;1.70;0.80;;;;;;;16.47;49.06;97883.69;4995748;28;20050;-50
2022/05/14 07:49:43;;;;;;;1.85;0.55;;;;;;;16.63;49.13;97887.97;4986206;28;20422;-47
2022/05/14 07:52:11;;;;;;;5.20;0.68;;;;;;;16.67;48.63;97881.97;4992883;28;20050;-49
2022/05/14 07:54:37;;;;;;;3.60;0.90;;;;;;;16.70;47.72;97884.13;4988880;28;20048;-53
2022/05/14 07:57:06;;;;;;;3.47;1.02;;;;;;;16.63;48.20;97884.44;4991751;28;20042;-53
2022/05/14 07:59:35;;;;;;;2.00;0.70;;;;;;;16.83;50.02;97885.44;5022091;28;20128;-52
2022/05/14 08:02:05;;;;;;;2.70;0.98;;;;;;;17.12;52.90;97882.88;5004849;28;20464;-52
2022/05/14 08:04:33;;;;;;;3.40;1.00;;;;;;;17.27;55.08;97886.59;4991129;28;20100;-52
2022/05/14 08:07:00;;;;;;;4.35;1.20;;;;;;;17.22;55.90;97883.91;4994156;28;20042;-55
2022/05/14 08:09:26;;;;;;;4.47;1.33;;;;;;;17.21;54.46;97874.88;5006504;28;20042;-55
2022/05/14 08:11:53;;;;;;;5.88;2.03;;;;;;;17.23;55.36;97880.91;5004091;28;20049;-54
2022/05/14 08:14:20;;;;;;;4.90;1.08;;;;;;;17.36;53.63;97890.38;5012798;28;20049;-53
2022/05/14 08:16:46;;;;;;;2.95;0.85;;;;;;;17.24;53.53;97881.69;5013078;28;20092;-51
2022/05/14 08:19:13;;;;;;;2.65;1.10;;;;;;;17.22;52.92;97884.75;5006284;28;20073;-53
2022/05/14 08:24:30;;;;;;;2.97;0.85;;;;;;;17.27;53.23;97879.22;5000298;28;20054;-48
2022/05/14 08:27:04;;;;;;;3.35;1.05;;;;;;;17.50;51.96;97884.25;5009639;28;20045;-53
2022/05/14 08:29:33;;;;;;;2.85;1.13;;;;;;;17.28;52.27;97882.75;5023458;28;20088;-49
2022/05/14 08:32:00;;;;;;;1.65;0.85;;;;;;;17.39;52.67;97872.56;5016013;28;20077;-49
2022/05/14 08:34:27;;;;;;;3.33;1.13;;;;;;;17.36;51.80;97876.69;4998703;28;20057;-53
2022/05/14 08:36:54;;;;;;;1.38;0.60;;;;;;;17.39;50.65;97876.13;5023033;28;20409;-52
2022/05/14 08:39:21;;;;;;;5.80;0.90;;;;;;;17.42;51.65;97870.09;5012802;28;20053;-52
2022/05/14 08:41:50;;;;;;;3.05;0.95;;;;;;;17.46;52.11;97870.31;5017502;28;20053;-55
2022/05/14 08:44:21;;;;;;;2.20;0.90;;;;;;;17.63;50.84;97875.41;4997193;28;20109;-51
2022/05/14 08:46:53;;;;;;;3.30;0.90;;;;;;;17.80;50.15;97869.50;4998385;28;20184;-51
2022/05/14 08:49:27;;;;;;;2.58;0.70;;;;;;;17.74;49.14;97870.66;4991502;28;20065;-51
2022/05/14 08:51:56;;;;;;;4.20;0.98;;;;;;;17.84;50.12;97872.47;4989672;28;20054;-46
2022/05/14 08:54:25;;;;;;;6.63;0.85;;;;;;;17.83;48.54;97872.78;4996542;28;20077;-54
2022/05/14 08:57:27;;;;;;;2.25;0.80;;;;;;;17.86;47.58;97874.94;4996981;28;20049;-56
2022/05/14 08:59:56;;;;;;;2.67;0.80;;;;;;;17.70;48.19;97871.53;4989756;28;20583;-56
2022/05/14 09:02:33;;;;;;;5.30;1.00;;;;;;;17.75;50.51;97872.28;5006742;28;20261;-54
2022/05/14 09:05:06;;;;;;;4.28;1.00;;;;;;;17.79;48.02;97872.53;4990605;28;20093;-54
2022/05/14 09:07:32;;;;;;;3.83;0.73;;;;;;;18.10;49.18;97868.72;5002053;28;20524;-51
2022/05/14 09:10:05;;;;;;;;;;;;;;;18.27;49.22;97877.31;5008632;28;20068;-56
2022/05/14 09:12:34;;;;;;;5.68;0.90;;;;;;;18.40;46.59;97866.78;4995805;28;19933;-54
2022/05/14 09:15:12;;;;;;;3.47;1.00;;;;;;;18.13;46.60;97868.16;5006216;28;20043;-56
2022/05/14 09:17:39;;;;;;;5.15;1.02;;;;;;;18.12;48.08;97863.75;5000742;28;20124;-56
2022/05/14 09:20:07;;;;;;;1.27;0.60;;;;;;;18.26;46.97;97864.72;5007753;28;20049;-56
2022/05/14 09:22:45;;;;;;;4.30;0.90;;;;;;;18.24;47.93;97866.94;5006313;28;20052;-54
2022/05/14 09:25:24;;;;;;;5.65;0.98;;;;;;;18.15;47.07;97865.94;5004934;28;20030;-55
2022/05/14 09:27:59;;;;;;;5.30;0.90;;;;;;;18.27;47.31;97860.03;4997106;28;20049;-54
2022/05/14 09:30:43;;;;;;;3.83;1.00;;;;;;;18.45;47.24;97858.47;5021510;28;20481;-54
2022/05/14 09:33:27;;;;;;;4.22;1.23;;;;;;;18.56;46.13;97873.72;4990417;28;20093;-49
2022/05/14 09:35:59;;;;;;;2.67;0.88;;;;;;;18.31;47.13;97867.41;5006000;28;20041;-50
2022/05/14 09:38:27;;;;;;;3.58;0.98;;;;;;;18.16;46.63;97867.56;5008546;28;20552;-51
2022/05/14 09:41:06;;;;;;;3.45;0.85;;;;;;;18.31;47.90;97859.19;5006774;28;20074;-48
2022/05/14 09:43:35;;;;;;;2.75;0.82;;;;;;;18.51;46.72;97862.81;5013552;28;20055;-49
2022/05/14 09:46:07;;;;;;;3.03;0.80;;;;;;;18.62;46.10;97859.94;5006400;28;20046;-51
2022/05/14 09:48:33;;;;;;;3.92;0.80;;;;;;;18.80;48.44;97856.41;5011055;28;20049;-47
2022/05/14 09:51:03;;;;;;;5.50;1.20;;;;;;;18.92;46.01;97857.91;5016491;28;20158;-54
2022/05/14 09:53:43;;;;;;;2.25;0.93;;;;;;;18.94;44.36;97859.25;4996320;28;20042;-52
2022/05/14 09:56:10;;;;;;;4.15;0.90;;;;;;;18.80;45.20;97853.66;5007525;28;20045;-49
2022/05/14 09:59:00;;;;;;;5.43;1.00;;;;;;;18.87;46.15;97853.28;5000011;28;20062;-55
2022/05/14 10:01:45;;;;;;;5.38;1.05;;;;;;;18.93;45.01;97849.38;4998931;28;20038;-56
2022/05/14 10:04:18;;;;;;;7.57;1.08;;;;;;;18.90;45.56;97851.91;5008657;28;20049;-55
2022/05/14 10:06:55;;;;;;;1.80;0.70;;;;;;;18.95;44.91;97847.16;5003616;28;20059;-55
2022/05/14 10:09:28;;;;;;;2.40;0.82;;;;;;;19.10;44.35;97851.63;5011181;28;20744;-55
2022/05/14 10:12:06;;;;;;;2.60;0.70;;;;;;;19.27;45.94;97850.31;5008427;28;20063;-53
2022/05/14 10:14:42;;;;;;;3.20;0.80;;;;;;;19.43;43.47;97853.66;5010735;28;20174;-57
2022/05/14 10:17:08;;;;;;;2.10;0.80;;;;;;;19.27;44.60;97849.50;4997492;28;20038;-55
2022/05/14 10:19:55;;;;;;;3.95;0.82;;;;;;;19.27;43.11;97853.03;5007227;28;20042;-56
2022/05/14 10:28:38;;;;;;;3.05;0.70;;;;;;;19.16;43.76;97843.34;4969257;28;20054;-46
2022/05/14 10:31:14;;;;;;;5.32;1.15;;;;;;;19.08;42.53;97844.81;5023719;28;20049;-42
2022/05/14 10:33:41;;;;;;;4.85;0.90;;;;;;;18.96;42.06;97837.81;5000072;28;20046;-46
2022/05/14 10:36:30;;;;;;;4.22;0.63;;;;;;;19.04;42.94;97830.84;5002221;28;20099;-45
2022/05/14 10:39:11;;;;;;;4.28;0.82;;;;;;;19.03;42.48;97829.22;5004247;28;20053;-45
2022/05/14 10:41:52;;;;;;;3.63;1.10;;;;;;;19.24;43.42;97826.22;5017489;28;20045;-45
2022/05/14 10:44:38;;;;;;;3.58;0.80;;;;;;;19.39;43.29;97825.16;5003021;28;20073;-46
2022/05/14 10:47:09;;;;;;;2.10;0.80;;;;;;;19.46;41.68;97827.53;4983885;28;20053;-43
2022/05/14 10:49:43;;;;;;;12.68;1.92;;;;;;;19.50;42.80;97825.81;5003423;28;20583;-42
2022/05/14 10:52:15;;;;;;;5.72;1.00;;;;;;;19.34;42.22;97828.78;4997114;28;20042;-43
2022/05/14 10:54:46;;;;;;;4.13;0.80;;;;;;;19.42;42.74;97826.47;5015639;28;20441;-46
2022/05/14 10:57:13;;;;;;;5.63;1.00;;;;;;;19.48;42.19;97823.34;5021441;28;20045;-45
2022/05/14 11:00:39;;;;;;;4.20;1.00;;;;;;;19.66;40.99;97823.59;4993750;28;20082;-45
2022/05/14 11:03:22;;;;;;;3.00;0.88;;;;;;;19.74;41.96;97828.41;5011174;28;20068;-48
2022/05/14 11:06:09;;;;;;;3.78;1.00;;;;;;;19.76;40.74;97825.38;5001838;28;20045;-44
2022/05/14 11:08:37;;;;;;;4.43;1.42;;;;;;;19.59;40.99;97826.75;5003182;28;20049;-45
2022/05/14 11:11:32;;;;;;;4.10;1.58;;;;;;;19.65;41.45;97819.25;5015028;28;20045;-46
2022/05/14 11:14:07;;;;;;;3.42;0.80;;;;;;;19.87;41.37;97820.50;4992547;28;20061;-45
2022/05/14 11:16:38;;;;;;;2.95;0.65;;;;;;;20.04;40.14;97821.88;5003086;28;20608;-42
2022/05/14 11:19:07;;;;;;;1.95;0.90;;;;;;;20.11;41.07;97814.88;5006890;28;20226;-42
2022/05/14 11:21:46;;;;;;;3.33;0.80;;;;;;;20.24;39.58;97815.19;5005399;28;20053;-43
2022/05/14 11:24:15;;;;;;;2.55;0.90;;;;;;;20.32;41.92;97808.97;4987844;28;20046;-43
2022/05/14 11:26:50;;;;;;;3.08;0.90;;;;;;;20.51;40.75;97803.34;4995170;28;20510;-47
2022/05/14 11:29:24;;;;;;;3.50;0.88;;;;;;;20.53;39.93;97809.34;4997831;28;20520;-43
2022/05/14 11:31:56;;;;;;;3.60;0.70;;;;;;;20.85;40.10;97809.50;4999933;28;20481;-41
2022/05/14 11:34:26;;;;;;;4.43;0.90;;;;;;;20.78;39.35;97820.94;4999162;28;20045;-42
2022/05/14 11:36:56;;;;;;;3.22;0.77;;;;;;;20.81;39.45;97819.50;5008480;28;20060;-44
2022/05/14 11:39:35;;;;;;;3.70;1.10;;;;;;;20.54;39.45;97810.97;5003153;28;20772;-43
2022/05/14 11:42:25;;;;;;;3.88;0.75;;;;;;;20.55;38.51;97817.31;4988871;28;20122;-43
2022/05/14 11:45:02;;;;;;;3.08;0.73;;;;;;;20.54;39.90;97815.69;5001809;28;20041;-43
2022/05/14 11:47:31;;;;;;;2.88;0.80;;;;;;;20.86;38.29;97807.59;5014093;28;20042;-45
2022/05/14 11:50:01;;;;;;;2.80;0.80;;;;;;;20.85;38.59;97808.69;4996775;28;20050;-43
2022/05/14 11:52:44;;;;;;;2.60;0.90;;;;;;;20.48;38.73;97801.22;4998619;28;20053;-44
2022/05/14 11:55:25;;;;;;;3.47;0.80;;;;;;;20.62;38.61;97809.47;5005881;28;20057;-40
2022/05/14 11:57:57;;;;;;;2.58;0.90;;;;;;;20.86;38.83;97797.38;5001780;28;20530;-42
2022/05/14 12:00:34;;;;;;;2.30;1.13;;;;;;;21.18;39.37;97801.09;4993611;28;20042;-46
2022/05/14 12:03:21;;;;;;;4.75;1.05;;;;;;;21.30;37.24;97797.78;5003912;28;20053;-47
2022/05/14 12:05:59;;;;;;;2.40;0.73;;;;;;;21.55;37.86;97795.50;5011958;28;20576;-43
2022/05/14 12:08:43;;;;;;;5.20;1.77;;;;;;;21.51;36.72;97793.69;5008328;28;20463;-47
2022/05/14 12:11:27;;;;;;;3.67;1.30;;;;;;;21.48;37.11;97795.13;5004566;28;20046;-45
2022/05/14 12:14:04;;;;;;;4.03;1.02;;;;;;;21.59;37.41;97786.63;5007862;28;20054;-49